Mitchells, Virginia
Current Conditions -  °F | °C
As of 4:55 PM on Monday 22 Dec 2014 (Local Time) from KOMH Reporting Station
Unknown Precip Unknown Precip  
Wind Chill: 29°   Ceiling: 500
Heat Index: 34°   Visibility: 3mi
Dew Point: 32°   Wind: 6mph
Humidity: 93%   Direction: 330°NNW
Pressure: 30.17"   Gusts: NA
Location:  38.38°N, 78.03°W
Report Text: KOMH 222155Z AUTO 33005KT 3SM UP BKN005 BKN008 OVC014 01/00 A3017 RMK AO2
Loading
Personal Weather Stations






























Interactive Weather Map New forecast layout! Learn more

10-Day Weather Forecast

Advertisements
Track Severe Weather on mobile